sensor_id;sensor_type;location;lat;lon;timestamp;P1;durP1;ratioP1;P2;durP2;ratioP2
4414;SDS011;2220;42.670;23.398;2023-08-20T00:02:02;11.60;;;5.85;;
4414;SDS011;2220;42.670;23.398;2023-08-20T00:04:32;12.18;;;5.78;;
4414;SDS011;2220;42.670;23.398;2023-08-20T00:07:02;7.30;;;5.78;;
4414;SDS011;2220;42.670;23.398;2023-08-20T00:09:28;7.70;;;6.28;;
4414;SDS011;2220;42.670;23.398;2023-08-20T00:11:55;11.65;;;6.15;;
4414;SDS011;2220;42.670;23.398;2023-08-20T00:14:21;9.55;;;6.18;;
4414;SDS011;2220;42.670;23.398;2023-08-20T00:17:24;7.30;;;6.20;;
4414;SDS011;2220;42.670;23.398;2023-08-20T00:19:52;10.02;;;6.70;;
4414;SDS011;2220;42.670;23.398;2023-08-20T00:22:20;7.05;;;5.95;;
4414;SDS011;2220;42.670;23.398;2023-08-20T00:24:48;6.45;;;5.82;;
4414;SDS011;2220;42.670;23.398;2023-08-20T00:27:14;9.02;;;6.35;;
4414;SDS011;2220;42.670;23.398;2023-08-20T00:29:39;7.20;;;5.85;;
4414;SDS011;2220;42.670;23.398;2023-08-20T00:32:05;11.00;;;6.18;;
4414;SDS011;2220;42.670;23.398;2023-08-20T00:34:30;10.90;;;6.25;;
4414;SDS011;2220;42.670;23.398;2023-08-20T00:36:56;12.30;;;6.40;;
4414;SDS011;2220;42.670;23.398;2023-08-20T00:39:21;13.13;;;6.13;;
4414;SDS011;2220;42.670;23.398;2023-08-20T00:41:47;8.85;;;6.47;;
4414;SDS011;2220;42.670;23.398;2023-08-20T00:44:12;11.10;;;6.25;;
4414;SDS011;2220;42.670;23.398;2023-08-20T00:46:38;8.45;;;6.72;;
4414;SDS011;2220;42.670;23.398;2023-08-20T00:49:03;9.52;;;6.32;;
4414;SDS011;2220;42.670;23.398;2023-08-20T00:51:32;12.32;;;6.70;;
4414;SDS011;2220;42.670;23.398;2023-08-20T00:53:58;9.95;;;6.18;;
4414;SDS011;2220;42.670;23.398;2023-08-20T00:56:25;14.80;;;6.65;;
4414;SDS011;2220;42.670;23.398;2023-08-20T00:58:52;11.38;;;6.80;;
4414;SDS011;2220;42.670;23.398;2023-08-20T01:01:19;11.75;;;7.30;;
4414;SDS011;2220;42.670;23.398;2023-08-20T01:03:46;10.40;;;6.07;;
4414;SDS011;2220;42.670;23.398;2023-08-20T01:06:15;9.43;;;6.35;;
4414;SDS011;2220;42.670;23.398;2023-08-20T01:08:51;10.13;;;5.95;;
4414;SDS011;2220;42.670;23.398;2023-08-20T01:11:26;10.80;;;6.38;;
4414;SDS011;2220;42.670;23.398;2023-08-20T01:13:55;12.40;;;6.05;;
4414;SDS011;2220;42.670;23.398;2023-08-20T01:16:21;9.95;;;6.85;;
4414;SDS011;2220;42.670;23.398;2023-08-20T01:18:47;10.63;;;6.78;;
4414;SDS011;2220;42.670;23.398;2023-08-20T01:21:20;6.72;;;6.13;;
4414;SDS011;2220;42.670;23.398;2023-08-20T01:23:56;9.85;;;6.18;;
4414;SDS011;2220;42.670;23.398;2023-08-20T01:29:34;10.95;;;6.00;;
4414;SDS011;2220;42.670;23.398;2023-08-20T01:32:01;16.67;;;7.25;;
4414;SDS011;2220;42.670;23.398;2023-08-20T01:34:27;7.82;;;6.63;;
4414;SDS011;2220;42.670;23.398;2023-08-20T01:36:53;10.32;;;6.95;;
4414;SDS011;2220;42.670;23.398;2023-08-20T01:39:19;10.77;;;6.97;;
4414;SDS011;2220;42.670;23.398;2023-08-20T01:41:45;8.27;;;6.75;;
4414;SDS011;2220;42.670;23.398;2023-08-20T01:44:10;11.10;;;7.15;;
4414;SDS011;2220;42.670;23.398;2023-08-20T01:46:36;9.35;;;6.95;;
4414;SDS011;2220;42.670;23.398;2023-08-20T01:49:01;12.95;;;7.53;;
4414;SDS011;2220;42.670;23.398;2023-08-20T01:51:28;13.32;;;6.80;;
4414;SDS011;2220;42.670;23.398;2023-08-20T01:53:54;10.20;;;6.82;;
4414;SDS011;2220;42.670;23.398;2023-08-20T01:56:19;11.98;;;7.53;;
4414;SDS011;2220;42.670;23.398;2023-08-20T01:58:44;12.02;;;7.28;;
4414;SDS011;2220;42.670;23.398;2023-08-20T02:01:10;10.10;;;7.13;;
4414;SDS011;2220;42.670;23.398;2023-08-20T02:03:36;12.15;;;7.82;;
4414;SDS011;2220;42.670;23.398;2023-08-20T02:06:03;12.45;;;7.65;;
4414;SDS011;2220;42.670;23.398;2023-08-20T02:08:28;9.35;;;7.43;;
4414;SDS011;2220;42.670;23.398;2023-08-20T02:11:03;13.45;;;7.28;;
4414;SDS011;2220;42.670;23.398;2023-08-20T02:13:30;8.23;;;7.35;;
4414;SDS011;2220;42.670;23.398;2023-08-20T02:16:00;11.23;;;7.78;;
4414;SDS011;2220;42.670;23.398;2023-08-20T02:18:25;12.93;;;7.88;;
4414;SDS011;2220;42.670;23.398;2023-08-20T02:20:51;13.88;;;7.78;;
4414;SDS011;2220;42.670;23.398;2023-08-20T02:23:16;9.18;;;7.35;;
4414;SDS011;2220;42.670;23.398;2023-08-20T02:25:43;11.68;;;7.10;;
4414;SDS011;2220;42.670;23.398;2023-08-20T02:28:09;9.85;;;7.03;;
4414;SDS011;2220;42.670;23.398;2023-08-20T02:30:39;10.80;;;8.15;;
4414;SDS011;2220;42.670;23.398;2023-08-20T02:33:08;17.88;;;8.15;;
4414;SDS011;2220;42.670;23.398;2023-08-20T02:35:35;12.40;;;8.13;;
4414;SDS011;2220;42.670;23.398;2023-08-20T02:38:01;10.48;;;7.28;;
4414;SDS011;2220;42.670;23.398;2023-08-20T02:40:26;10.93;;;7.15;;
4414;SDS011;2220;42.670;23.398;2023-08-20T02:42:52;8.43;;;7.18;;
4414;SDS011;2220;42.670;23.398;2023-08-20T02:45:17;13.00;;;8.48;;
4414;SDS011;2220;42.670;23.398;2023-08-20T02:47:42;11.55;;;7.90;;
4414;SDS011;2220;42.670;23.398;2023-08-20T02:50:08;11.15;;;7.38;;
4414;SDS011;2220;42.670;23.398;2023-08-20T02:52:34;14.13;;;7.78;;
4414;SDS011;2220;42.670;23.398;2023-08-20T02:54:59;11.70;;;8.10;;
4414;SDS011;2220;42.670;23.398;2023-08-20T02:57:25;10.25;;;7.68;;
4414;SDS011;2220;42.670;23.398;2023-08-20T02:59:51;13.52;;;7.72;;
4414;SDS011;2220;42.670;23.398;2023-08-20T03:02:16;11.77;;;8.25;;
4414;SDS011;2220;42.670;23.398;2023-08-20T03:04:42;13.35;;;8.13;;
4414;SDS011;2220;42.670;23.398;2023-08-20T03:07:08;10.82;;;7.65;;
4414;SDS011;2220;42.670;23.398;2023-08-20T03:09:33;16.27;;;8.55;;
4414;SDS011;2220;42.670;23.398;2023-08-20T03:11:59;10.60;;;7.72;;
4414;SDS011;2220;42.670;23.398;2023-08-20T03:14:24;18.35;;;8.40;;
4414;SDS011;2220;42.670;23.398;2023-08-20T03:16:50;18.30;;;8.93;;
4414;SDS011;2220;42.670;23.398;2023-08-20T03:19:15;13.43;;;7.78;;
4414;SDS011;2220;42.670;23.398;2023-08-20T03:21:41;12.80;;;8.15;;
4414;SDS011;2220;42.670;23.398;2023-08-20T03:24:07;11.65;;;7.95;;
4414;SDS011;2220;42.670;23.398;2023-08-20T03:26:33;13.27;;;8.25;;
4414;SDS011;2220;42.670;23.398;2023-08-20T03:28:58;13.85;;;8.40;;
4414;SDS011;2220;42.670;23.398;2023-08-20T03:31:24;12.52;;;8.75;;
4414;SDS011;2220;42.670;23.398;2023-08-20T03:33:49;13.73;;;8.30;;
4414;SDS011;2220;42.670;23.398;2023-08-20T03:36:15;12.07;;;8.68;;
4414;SDS011;2220;42.670;23.398;2023-08-20T03:38:41;15.80;;;9.52;;
4414;SDS011;2220;42.670;23.398;2023-08-20T03:41:06;16.17;;;8.27;;
4414;SDS011;2220;42.670;23.398;2023-08-20T03:43:32;11.80;;;9.15;;
4414;SDS011;2220;42.670;23.398;2023-08-20T03:45:57;14.15;;;8.07;;
4414;SDS011;2220;42.670;23.398;2023-08-20T03:48:23;10.43;;;7.60;;
4414;SDS011;2220;42.670;23.398;2023-08-20T03:50:48;12.73;;;7.18;;
4414;SDS011;2220;42.670;23.398;2023-08-20T03:53:14;8.77;;;7.60;;
4414;SDS011;2220;42.670;23.398;2023-08-20T03:55:39;15.05;;;8.00;;
4414;SDS011;2220;42.670;23.398;2023-08-20T03:58:05;9.93;;;7.97;;
4414;SDS011;2220;42.670;23.398;2023-08-20T04:00:30;9.10;;;7.32;;
4414;SDS011;2220;42.670;23.398;2023-08-20T04:02:56;11.07;;;7.68;;
4414;SDS011;2220;42.670;23.398;2023-08-20T04:05:21;11.23;;;6.65;;
4414;SDS011;2220;42.670;23.398;2023-08-20T04:07:46;8.57;;;7.13;;
4414;SDS011;2220;42.670;23.398;2023-08-20T04:10:12;8.90;;;7.25;;
4414;SDS011;2220;42.670;23.398;2023-08-20T04:12:37;13.02;;;6.60;;
4414;SDS011;2220;42.670;23.398;2023-08-20T04:15:03;7.45;;;6.75;;
4414;SDS011;2220;42.670;23.398;2023-08-20T04:17:29;10.55;;;7.10;;
4414;SDS011;2220;42.670;23.398;2023-08-20T04:19:54;14.88;;;6.93;;
4414;SDS011;2220;42.670;23.398;2023-08-20T04:22:19;10.35;;;6.60;;
4414;SDS011;2220;42.670;23.398;2023-08-20T04:24:45;15.25;;;6.68;;
4414;SDS011;2220;42.670;23.398;2023-08-20T04:27:10;15.68;;;7.32;;
4414;SDS011;2220;42.670;23.398;2023-08-20T04:29:36;21.85;;;7.78;;
4414;SDS011;2220;42.670;23.398;2023-08-20T04:32:01;10.50;;;7.25;;
4414;SDS011;2220;42.670;23.398;2023-08-20T04:34:27;21.42;;;8.80;;
4414;SDS011;2220;42.670;23.398;2023-08-20T04:36:52;13.65;;;8.68;;
4414;SDS011;2220;42.670;23.398;2023-08-20T04:39:18;12.65;;;8.68;;
4414;SDS011;2220;42.670;23.398;2023-08-20T04:41:43;17.90;;;8.50;;
4414;SDS011;2220;42.670;23.398;2023-08-20T04:44:09;14.10;;;8.93;;
4414;SDS011;2220;42.670;23.398;2023-08-20T04:46:34;19.05;;;9.40;;
4414;SDS011;2220;42.670;23.398;2023-08-20T04:49:00;11.60;;;8.18;;
4414;SDS011;2220;42.670;23.398;2023-08-20T04:51:25;16.63;;;7.82;;
4414;SDS011;2220;42.670;23.398;2023-08-20T04:53:51;9.35;;;7.43;;
4414;SDS011;2220;42.670;23.398;2023-08-20T04:56:16;24.88;;;8.75;;
4414;SDS011;2220;42.670;23.398;2023-08-20T04:58:42;17.65;;;8.45;;
4414;SDS011;2220;42.670;23.398;2023-08-20T05:01:07;17.20;;;8.63;;
4414;SDS011;2220;42.670;23.398;2023-08-20T05:03:34;15.18;;;7.72;;
4414;SDS011;2220;42.670;23.398;2023-08-20T05:05:59;10.57;;;7.65;;
4414;SDS011;2220;42.670;23.398;2023-08-20T05:08:25;14.50;;;8.40;;
4414;SDS011;2220;42.670;23.398;2023-08-20T05:10:50;13.00;;;7.63;;
4414;SDS011;2220;42.670;23.398;2023-08-20T05:13:16;16.63;;;9.18;;
4414;SDS011;2220;42.670;23.398;2023-08-20T05:15:42;16.23;;;8.98;;
4414;SDS011;2220;42.670;23.398;2023-08-20T05:18:08;24.48;;;9.75;;
4414;SDS011;2220;42.670;23.398;2023-08-20T05:20:33;27.13;;;10.82;;
4414;SDS011;2220;42.670;23.398;2023-08-20T05:22:58;21.50;;;9.35;;
4414;SDS011;2220;42.670;23.398;2023-08-20T05:25:24;23.98;;;9.88;;
4414;SDS011;2220;42.670;23.398;2023-08-20T05:27:50;23.13;;;10.82;;
4414;SDS011;2220;42.670;23.398;2023-08-20T05:30:15;13.70;;;9.40;;
4414;SDS011;2220;42.670;23.398;2023-08-20T05:32:41;20.63;;;11.55;;
4414;SDS011;2220;42.670;23.398;2023-08-20T05:35:06;15.93;;;9.35;;
4414;SDS011;2220;42.670;23.398;2023-08-20T05:37:32;22.65;;;10.15;;
4414;SDS011;2220;42.670;23.398;2023-08-20T05:39:57;18.30;;;10.52;;
4414;SDS011;2220;42.670;23.398;2023-08-20T05:42:23;21.17;;;10.32;;
4414;SDS011;2220;42.670;23.398;2023-08-20T05:44:48;20.35;;;9.88;;
4414;SDS011;2220;42.670;23.398;2023-08-20T05:47:14;15.73;;;9.52;;
4414;SDS011;2220;42.670;23.398;2023-08-20T05:49:39;19.02;;;9.45;;
4414;SDS011;2220;42.670;23.398;2023-08-20T05:52:04;14.15;;;9.77;;
4414;SDS011;2220;42.670;23.398;2023-08-20T05:54:30;19.35;;;9.95;;
4414;SDS011;2220;42.670;23.398;2023-08-20T05:56:57;19.77;;;10.80;;
4414;SDS011;2220;42.670;23.398;2023-08-20T05:59:23;21.48;;;9.60;;
4414;SDS011;2220;42.670;23.398;2023-08-20T06:01:49;16.20;;;9.77;;
4414;SDS011;2220;42.670;23.398;2023-08-20T06:04:14;19.13;;;8.50;;
4414;SDS011;2220;42.670;23.398;2023-08-20T06:06:40;18.27;;;8.85;;
4414;SDS011;2220;42.670;23.398;2023-08-20T06:09:05;23.65;;;9.82;;
4414;SDS011;2220;42.670;23.398;2023-08-20T06:11:31;21.00;;;8.40;;
4414;SDS011;2220;42.670;23.398;2023-08-20T06:13:56;16.05;;;9.05;;
4414;SDS011;2220;42.670;23.398;2023-08-20T06:16:22;14.35;;;9.30;;
4414;SDS011;2220;42.670;23.398;2023-08-20T06:18:47;12.10;;;9.25;;
4414;SDS011;2220;42.670;23.398;2023-08-20T06:21:13;16.13;;;9.30;;
4414;SDS011;2220;42.670;23.398;2023-08-20T06:23:38;16.40;;;8.80;;
4414;SDS011;2220;42.670;23.398;2023-08-20T06:26:03;17.70;;;9.38;;
4414;SDS011;2220;42.670;23.398;2023-08-20T06:28:29;17.20;;;9.15;;
4414;SDS011;2220;42.670;23.398;2023-08-20T06:30:55;33.30;;;9.00;;
4414;SDS011;2220;42.670;23.398;2023-08-20T06:33:21;13.48;;;8.63;;
4414;SDS011;2220;42.670;23.398;2023-08-20T06:35:46;15.02;;;9.57;;
4414;SDS011;2220;42.670;23.398;2023-08-20T06:38:12;11.20;;;8.15;;
4414;SDS011;2220;42.670;23.398;2023-08-20T06:40:37;18.80;;;8.93;;
4414;SDS011;2220;42.670;23.398;2023-08-20T06:43:03;17.05;;;8.70;;
4414;SDS011;2220;42.670;23.398;2023-08-20T06:45:29;20.90;;;9.10;;
4414;SDS011;2220;42.670;23.398;2023-08-20T06:47:55;18.15;;;8.88;;
4414;SDS011;2220;42.670;23.398;2023-08-20T06:50:20;29.15;;;8.43;;
4414;SDS011;2220;42.670;23.398;2023-08-20T06:52:45;20.05;;;8.52;;
4414;SDS011;2220;42.670;23.398;2023-08-20T06:55:11;21.98;;;8.20;;
4414;SDS011;2220;42.670;23.398;2023-08-20T06:57:36;18.73;;;8.60;;
4414;SDS011;2220;42.670;23.398;2023-08-20T07:00:02;15.98;;;8.10;;
4414;SDS011;2220;42.670;23.398;2023-08-20T07:02:29;19.80;;;8.15;;
4414;SDS011;2220;42.670;23.398;2023-08-20T07:04:55;22.98;;;9.00;;
4414;SDS011;2220;42.670;23.398;2023-08-20T07:07:20;10.68;;;7.53;;
4414;SDS011;2220;42.670;23.398;2023-08-20T07:09:47;15.55;;;8.13;;
4414;SDS011;2220;42.670;23.398;2023-08-20T07:12:12;22.85;;;8.90;;
4414;SDS011;2220;42.670;23.398;2023-08-20T07:14:38;20.88;;;7.88;;
4414;SDS011;2220;42.670;23.398;2023-08-20T07:17:03;19.92;;;12.35;;
4414;SDS011;2220;42.670;23.398;2023-08-20T07:19:30;22.02;;;7.80;;
4414;SDS011;2220;42.670;23.398;2023-08-20T07:21:55;54.75;;;35.08;;
4414;SDS011;2220;42.670;23.398;2023-08-20T07:24:21;9.57;;;7.80;;
4414;SDS011;2220;42.670;23.398;2023-08-20T07:26:54;11.07;;;6.90;;
4414;SDS011;2220;42.670;23.398;2023-08-20T07:29:24;12.93;;;9.55;;
4414;SDS011;2220;42.670;23.398;2023-08-20T07:31:50;13.13;;;5.97;;
4414;SDS011;2220;42.670;23.398;2023-08-20T07:34:16;11.73;;;5.80;;
4414;SDS011;2220;42.670;23.398;2023-08-20T07:36:41;13.43;;;6.68;;
4414;SDS011;2220;42.670;23.398;2023-08-20T07:39:07;8.13;;;6.28;;
4414;SDS011;2220;42.670;23.398;2023-08-20T07:41:33;13.07;;;6.03;;
4414;SDS011;2220;42.670;23.398;2023-08-20T07:43:59;11.02;;;6.65;;
4414;SDS011;2220;42.670;23.398;2023-08-20T07:46:24;11.18;;;9.30;;
4414;SDS011;2220;42.670;23.398;2023-08-20T07:48:50;12.13;;;7.07;;
4414;SDS011;2220;42.670;23.398;2023-08-20T07:51:15;11.68;;;5.97;;
4414;SDS011;2220;42.670;23.398;2023-08-20T07:53:41;9.77;;;5.80;;
4414;SDS011;2220;42.670;23.398;2023-08-20T07:56:06;8.25;;;4.57;;
4414;SDS011;2220;42.670;23.398;2023-08-20T07:58:32;10.07;;;5.55;;
4414;SDS011;2220;42.670;23.398;2023-08-20T08:01:00;10.35;;;7.47;;
4414;SDS011;2220;42.670;23.398;2023-08-20T08:03:25;6.05;;;5.40;;
4414;SDS011;2220;42.670;23.398;2023-08-20T08:05:52;10.45;;;5.25;;
4414;SDS011;2220;42.670;23.398;2023-08-20T08:08:19;7.82;;;5.45;;
4414;SDS011;2220;42.670;23.398;2023-08-20T08:10:44;5.75;;;4.85;;
4414;SDS011;2220;42.670;23.398;2023-08-20T08:13:11;8.15;;;5.68;;
4414;SDS011;2220;42.670;23.398;2023-08-20T08:15:38;12.43;;;5.18;;
4414;SDS011;2220;42.670;23.398;2023-08-20T08:18:03;9.32;;;4.97;;
4414;SDS011;2220;42.670;23.398;2023-08-20T08:20:29;11.98;;;4.85;;
4414;SDS011;2220;42.670;23.398;2023-08-20T08:22:54;6.15;;;4.78;;
4414;SDS011;2220;42.670;23.398;2023-08-20T08:25:20;7.32;;;4.35;;
4414;SDS011;2220;42.670;23.398;2023-08-20T08:27:45;10.65;;;4.88;;
4414;SDS011;2220;42.670;23.398;2023-08-20T08:30:11;7.25;;;4.07;;
4414;SDS011;2220;42.670;23.398;2023-08-20T08:32:37;6.80;;;5.85;;
4414;SDS011;2220;42.670;23.398;2023-08-20T08:35:02;6.90;;;5.18;;
4414;SDS011;2220;42.670;23.398;2023-08-20T08:37:28;9.25;;;3.90;;
4414;SDS011;2220;42.670;23.398;2023-08-20T08:39:53;4.75;;;3.55;;
4414;SDS011;2220;42.670;23.398;2023-08-20T08:42:19;5.65;;;4.22;;
4414;SDS011;2220;42.670;23.398;2023-08-20T08:44:47;5.38;;;4.88;;
4414;SDS011;2220;42.670;23.398;2023-08-20T08:47:14;5.10;;;3.08;;
4414;SDS011;2220;42.670;23.398;2023-08-20T08:49:40;3.75;;;3.45;;
4414;SDS011;2220;42.670;23.398;2023-08-20T08:52:06;4.68;;;3.45;;
4414;SDS011;2220;42.670;23.398;2023-08-20T08:54:33;3.95;;;3.47;;
4414;SDS011;2220;42.670;23.398;2023-08-20T08:56:58;8.57;;;3.30;;
4414;SDS011;2220;42.670;23.398;2023-08-20T08:59:24;4.70;;;4.18;;
4414;SDS011;2220;42.670;23.398;2023-08-20T09:01:50;4.38;;;3.03;;
4414;SDS011;2220;42.670;23.398;2023-08-20T09:04:15;7.30;;;3.92;;
4414;SDS011;2220;42.670;23.398;2023-08-20T09:06:47;3.70;;;3.40;;
4414;SDS011;2220;42.670;23.398;2023-08-20T09:09:16;4.90;;;2.67;;
4414;SDS011;2220;42.670;23.398;2023-08-20T09:11:42;3.33;;;3.03;;
4414;SDS011;2220;42.670;23.398;2023-08-20T09:14:07;3.15;;;2.95;;
4414;SDS011;2220;42.670;23.398;2023-08-20T09:16:33;4.30;;;2.95;;
4414;SDS011;2220;42.670;23.398;2023-08-20T09:18:59;4.25;;;3.40;;
4414;SDS011;2220;42.670;23.398;2023-08-20T09:21:28;3.42;;;3.05;;
4414;SDS011;2220;42.670;23.398;2023-08-20T09:23:55;5.25;;;3.10;;
4414;SDS011;2220;42.670;23.398;2023-08-20T09:26:26;6.50;;;3.10;;
4414;SDS011;2220;42.670;23.398;2023-08-20T09:28:54;3.85;;;3.03;;
4414;SDS011;2220;42.670;23.398;2023-08-20T09:31:21;5.72;;;3.33;;
4414;SDS011;2220;42.670;23.398;2023-08-20T09:34:03;5.60;;;3.30;;
4414;SDS011;2220;42.670;23.398;2023-08-20T09:36:32;3.38;;;3.05;;
4414;SDS011;2220;42.670;23.398;2023-08-20T09:38:59;5.82;;;2.92;;
4414;SDS011;2220;42.670;23.398;2023-08-20T09:41:26;4.25;;;3.03;;
4414;SDS011;2220;42.670;23.398;2023-08-20T09:43:53;5.43;;;2.47;;
4414;SDS011;2220;42.670;23.398;2023-08-20T09:46:23;3.15;;;2.63;;
4414;SDS011;2220;42.670;23.398;2023-08-20T09:48:50;5.07;;;3.45;;
4414;SDS011;2220;42.670;23.398;2023-08-20T09:51:18;7.30;;;2.67;;
4414;SDS011;2220;42.670;23.398;2023-08-20T09:53:51;8.23;;;2.50;;
4414;SDS011;2220;42.670;23.398;2023-08-20T09:56:27;3.33;;;2.70;;
4414;SDS011;2220;42.670;23.398;2023-08-20T09:58:59;3.33;;;2.67;;
4414;SDS011;2220;42.670;23.398;2023-08-20T10:01:26;2.67;;;2.50;;
4414;SDS011;2220;42.670;23.398;2023-08-20T10:03:52;5.80;;;2.50;;
4414;SDS011;2220;42.670;23.398;2023-08-20T10:06:18;4.30;;;2.38;;
4414;SDS011;2220;42.670;23.398;2023-08-20T10:08:45;3.67;;;2.28;;
4414;SDS011;2220;42.670;23.398;2023-08-20T10:11:12;7.22;;;3.10;;
4414;SDS011;2220;42.670;23.398;2023-08-20T10:13:38;3.08;;;2.75;;
4414;SDS011;2220;42.670;23.398;2023-08-20T10:16:04;3.15;;;2.60;;
4414;SDS011;2220;42.670;23.398;2023-08-20T10:18:30;3.88;;;2.83;;
4414;SDS011;2220;42.670;23.398;2023-08-20T10:20:58;5.40;;;2.50;;
4414;SDS011;2220;42.670;23.398;2023-08-20T10:23:24;4.10;;;2.40;;
4414;SDS011;2220;42.670;23.398;2023-08-20T10:25:51;8.90;;;2.72;;
4414;SDS011;2220;42.670;23.398;2023-08-20T10:28:21;10.77;;;3.22;;
4414;SDS011;2220;42.670;23.398;2023-08-20T10:31:02;3.10;;;2.90;;
4414;SDS011;2220;42.670;23.398;2023-08-20T10:33:48;3.22;;;2.92;;
4414;SDS011;2220;42.670;23.398;2023-08-20T10:36:19;3.13;;;2.80;;
4414;SDS011;2220;42.670;23.398;2023-08-20T10:38:50;3.53;;;3.17;;
4414;SDS011;2220;42.670;23.398;2023-08-20T10:41:15;3.38;;;3.00;;
4414;SDS011;2220;42.670;23.398;2023-08-20T10:43:47;7.40;;;2.95;;
4414;SDS011;2220;42.670;23.398;2023-08-20T10:46:14;6.80;;;2.78;;
4414;SDS011;2220;42.670;23.398;2023-08-20T10:48:41;3.70;;;3.10;;
4414;SDS011;2220;42.670;23.398;2023-08-20T10:53:34;7.30;;;2.88;;
4414;SDS011;2220;42.670;23.398;2023-08-20T10:56:15;5.28;;;2.92;;
4414;SDS011;2220;42.670;23.398;2023-08-20T10:58:42;4.13;;;3.28;;
4414;SDS011;2220;42.670;23.398;2023-08-20T11:01:12;3.55;;;2.08;;
4414;SDS011;2220;42.670;23.398;2023-08-20T11:03:45;2.80;;;2.60;;
4414;SDS011;2220;42.670;23.398;2023-08-20T11:06:12;4.63;;;2.53;;
4414;SDS011;2220;42.670;23.398;2023-08-20T11:08:38;3.45;;;2.63;;
4414;SDS011;2220;42.670;23.398;2023-08-20T11:11:05;9.43;;;3.00;;
4414;SDS011;2220;42.670;23.398;2023-08-20T11:13:32;2.70;;;2.60;;
4414;SDS011;2220;42.670;23.398;2023-08-20T11:15:59;5.22;;;2.80;;
4414;SDS011;2220;42.670;23.398;2023-08-20T11:18:25;3.97;;;2.83;;
4414;SDS011;2220;42.670;23.398;2023-08-20T11:20:51;3.60;;;3.00;;
4414;SDS011;2220;42.670;23.398;2023-08-20T11:23:16;5.90;;;3.00;;
4414;SDS011;2220;42.670;23.398;2023-08-20T11:25:42;3.00;;;2.80;;
4414;SDS011;2220;42.670;23.398;2023-08-20T11:28:08;5.18;;;3.03;;
4414;SDS011;2220;42.670;23.398;2023-08-20T11:30:34;6.43;;;3.17;;
4414;SDS011;2220;42.670;23.398;2023-08-20T11:33:00;3.17;;;2.88;;
4414;SDS011;2220;42.670;23.398;2023-08-20T11:35:27;6.47;;;3.17;;
4414;SDS011;2220;42.670;23.398;2023-08-20T11:37:53;3.08;;;2.88;;
4414;SDS011;2220;42.670;23.398;2023-08-20T11:40:21;6.50;;;2.90;;
4414;SDS011;2220;42.670;23.398;2023-08-20T11:42:47;5.35;;;3.22;;
4414;SDS011;2220;42.670;23.398;2023-08-20T11:45:13;5.18;;;2.75;;
4414;SDS011;2220;42.670;23.398;2023-08-20T11:47:39;4.72;;;3.10;;
4414;SDS011;2220;42.670;23.398;2023-08-20T11:50:05;3.28;;;2.97;;
4414;SDS011;2220;42.670;23.398;2023-08-20T11:52:32;2.83;;;2.70;;
4414;SDS011;2220;42.670;23.398;2023-08-20T11:54:58;2.83;;;2.58;;
4414;SDS011;2220;42.670;23.398;2023-08-20T11:57:25;2.78;;;2.58;;
4414;SDS011;2220;42.670;23.398;2023-08-20T11:59:51;5.40;;;3.10;;
4414;SDS011;2220;42.670;23.398;2023-08-20T12:02:24;3.30;;;3.00;;
4414;SDS011;2220;42.670;23.398;2023-08-20T12:04:50;7.22;;;2.60;;
4414;SDS011;2220;42.670;23.398;2023-08-20T12:07:16;2.92;;;2.63;;
4414;SDS011;2220;42.670;23.398;2023-08-20T12:09:42;3.60;;;3.00;;
4414;SDS011;2220;42.670;23.398;2023-08-20T12:12:07;3.28;;;2.97;;
4414;SDS011;2220;42.670;23.398;2023-08-20T12:14:36;5.93;;;3.30;;
4414;SDS011;2220;42.670;23.398;2023-08-20T12:17:02;3.75;;;3.25;;
4414;SDS011;2220;42.670;23.398;2023-08-20T12:19:30;4.68;;;3.15;;
4414;SDS011;2220;42.670;23.398;2023-08-20T12:21:56;4.13;;;2.88;;
4414;SDS011;2220;42.670;23.398;2023-08-20T12:24:21;5.07;;;2.85;;
4414;SDS011;2220;42.670;23.398;2023-08-20T12:26:47;7.53;;;2.88;;
4414;SDS011;2220;42.670;23.398;2023-08-20T12:29:13;7.43;;;3.35;;
4414;SDS011;2220;42.670;23.398;2023-08-20T12:31:40;3.25;;;2.83;;
4414;SDS011;2220;42.670;23.398;2023-08-20T12:34:06;6.57;;;3.05;;
4414;SDS011;2220;42.670;23.398;2023-08-20T12:36:33;3.78;;;3.20;;
4414;SDS011;2220;42.670;23.398;2023-08-20T12:38:58;6.75;;;2.95;;
4414;SDS011;2220;42.670;23.398;2023-08-20T12:41:24;3.42;;;2.80;;
4414;SDS011;2220;42.670;23.398;2023-08-20T12:43:49;2.80;;;2.60;;
4414;SDS011;2220;42.670;23.398;2023-08-20T12:46:16;8.63;;;2.58;;
4414;SDS011;2220;42.670;23.398;2023-08-20T12:48:42;3.20;;;2.55;;
4414;SDS011;2220;42.670;23.398;2023-08-20T12:51:07;5.00;;;2.67;;
4414;SDS011;2220;42.670;23.398;2023-08-20T12:53:33;7.95;;;3.00;;
4414;SDS011;2220;42.670;23.398;2023-08-20T12:55:59;4.63;;;2.80;;
4414;SDS011;2220;42.670;23.398;2023-08-20T12:58:24;19.10;;;2.88;;
4414;SDS011;2220;42.670;23.398;2023-08-20T13:00:50;5.60;;;2.45;;
4414;SDS011;2220;42.670;23.398;2023-08-20T13:03:16;5.85;;;2.60;;
4414;SDS011;2220;42.670;23.398;2023-08-20T13:05:43;3.10;;;2.90;;
4414;SDS011;2220;42.670;23.398;2023-08-20T13:08:09;3.00;;;2.78;;
4414;SDS011;2220;42.670;23.398;2023-08-20T13:10:37;3.22;;;2.95;;
4414;SDS011;2220;42.670;23.398;2023-08-20T13:13:05;3.70;;;2.83;;
4414;SDS011;2220;42.670;23.398;2023-08-20T13:15:34;5.57;;;2.88;;
4414;SDS011;2220;42.670;23.398;2023-08-20T13:18:00;4.05;;;2.50;;
4414;SDS011;2220;42.670;23.398;2023-08-20T13:20:25;2.88;;;2.50;;
4414;SDS011;2220;42.670;23.398;2023-08-20T13:22:52;5.63;;;2.92;;
4414;SDS011;2220;42.670;23.398;2023-08-20T13:25:18;5.95;;;3.42;;
4414;SDS011;2220;42.670;23.398;2023-08-20T13:27:45;2.92;;;2.67;;
4414;SDS011;2220;42.670;23.398;2023-08-20T13:30:11;6.68;;;2.58;;
4414;SDS011;2220;42.670;23.398;2023-08-20T13:32:37;2.92;;;2.70;;
4414;SDS011;2220;42.670;23.398;2023-08-20T13:35:03;3.53;;;3.05;;
4414;SDS011;2220;42.670;23.398;2023-08-20T13:37:32;5.53;;;2.28;;
4414;SDS011;2220;42.670;23.398;2023-08-20T13:39:58;2.63;;;2.42;;
4414;SDS011;2220;42.670;23.398;2023-08-20T13:42:25;5.28;;;2.60;;
4414;SDS011;2220;42.670;23.398;2023-08-20T13:44:51;3.00;;;2.80;;
4414;SDS011;2220;42.670;23.398;2023-08-20T13:47:16;4.70;;;2.25;;
4414;SDS011;2220;42.670;23.398;2023-08-20T13:49:42;2.50;;;2.30;;
4414;SDS011;2220;42.670;23.398;2023-08-20T13:52:08;6.85;;;2.40;;
4414;SDS011;2220;42.670;23.398;2023-08-20T13:54:34;4.90;;;2.90;;
4414;SDS011;2220;42.670;23.398;2023-08-20T13:57:01;3.25;;;2.70;;
4414;SDS011;2220;42.670;23.398;2023-08-20T13:59:26;3.03;;;2.78;;
4414;SDS011;2220;42.670;23.398;2023-08-20T14:01:52;3.65;;;2.90;;
4414;SDS011;2220;42.670;23.398;2023-08-20T14:04:17;4.00;;;2.75;;
4414;SDS011;2220;42.670;23.398;2023-08-20T14:06:43;4.22;;;2.10;;
4414;SDS011;2220;42.670;23.398;2023-08-20T14:09:08;3.17;;;2.97;;
4414;SDS011;2220;42.670;23.398;2023-08-20T14:11:33;3.05;;;2.20;;
4414;SDS011;2220;42.670;23.398;2023-08-20T14:13:59;3.83;;;2.55;;
4414;SDS011;2220;42.670;23.398;2023-08-20T14:16:24;6.60;;;3.15;;
4414;SDS011;2220;42.670;23.398;2023-08-20T14:18:50;1.88;;;1.77;;
4414;SDS011;2220;42.670;23.398;2023-08-20T14:21:16;4.60;;;2.65;;
4414;SDS011;2220;42.670;23.398;2023-08-20T14:23:41;8.23;;;2.30;;
4414;SDS011;2220;42.670;23.398;2023-08-20T14:26:07;5.97;;;2.33;;
4414;SDS011;2220;42.670;23.398;2023-08-20T14:28:35;4.38;;;2.53;;
4414;SDS011;2220;42.670;23.398;2023-08-20T14:31:03;2.45;;;2.08;;
4414;SDS011;2220;42.670;23.398;2023-08-20T14:33:32;2.78;;;2.38;;
4414;SDS011;2220;42.670;23.398;2023-08-20T14:35:57;5.45;;;2.55;;
4414;SDS011;2220;42.670;23.398;2023-08-20T14:38:23;5.10;;;2.30;;
4414;SDS011;2220;42.670;23.398;2023-08-20T14:40:48;3.85;;;2.13;;
4414;SDS011;2220;42.670;23.398;2023-08-20T14:43:14;2.80;;;2.20;;
4414;SDS011;2220;42.670;23.398;2023-08-20T14:45:39;7.32;;;2.13;;
4414;SDS011;2220;42.670;23.398;2023-08-20T14:48:05;3.03;;;1.83;;
4414;SDS011;2220;42.670;23.398;2023-08-20T14:50:30;3.42;;;2.50;;
4414;SDS011;2220;42.670;23.398;2023-08-20T14:52:56;2.85;;;2.40;;
4414;SDS011;2220;42.670;23.398;2023-08-20T14:55:22;2.40;;;2.30;;
4414;SDS011;2220;42.670;23.398;2023-08-20T14:57:48;2.45;;;2.25;;